Bell, FL (32619)

9:08 PM EST on December 21, 2014 (GMT -0500)
Gilchrist County | Change Station
CLOSE
Current Station
Personal Weather Station
Location: .Trenton, FL
Elevation: 86 ft
Nearby Weather Stations

Elev 86 ft 29.67 °N, 82.70 °W | Updated 2 seconds ago

Overcast
Overcast
62.2 °F
Feels Like 62.2 °F
N
2.0
Wind Variable Wind from ENE
Gusts 2.0 mph

Today
High -- | Low -- °F
--% Chance of Precip.
Yesterday
High -- | Low -- °F
Precip. -- in
7:22 AM 5:36 PM
New Moon, 0% visible
Pressure 30.06 in
Visibility 3.0 miles
Clouds Overcast 200 ft
Dew Point 60 °F
Humidity 93%
Rainfall 0.07 in
Snow Depth Not available.
UV 0.0 out of 12
Pollen .50 out of 12
Air Quality Not available.
Flu Activity Not available.
METAR KGNV 220153Z 06004KT 3SM BR OVC002 16/16 A3006 RMK AO2 RAE21 SLP179 P0000 T01610161

More Conditions Fewer Conditions

Pressure 30.06 in
Visibility 3.0 miles
Clouds Overcast 200 ft
Dew Point 60 °F
Humidity 93%
Rainfall 0.07 in
Snow Depth Not available.
UV 0.0 out of 12
Pollen .50 out of 12
Air Quality Not available.
Flu Activity Not available.
METAR KGNV 220153Z 06004KT 3SM BR OVC002 16/16 A3006 RMK AO2 RAE21 SLP179 P0000 T01610161

More Conditions Fewer Conditions

10-Day Weather Forecast

Almanac

Astronomy

Dec. 21, 2014 Rise Set
Actual Time
Civil Twilight
Nautical Twilight
Astronomical Twilight
Moon
Length of Visible Light
Length of Day
Tomorrow will be .
, % of the Moon is Illuminated

Today's Extremes

State Highs State Lows

Community

WunderPhotos

Upload Photos

1,779,520 photos uploaded!

WunderBlogs® & News

Nearby

Air Quality

  Air Quality AQ Index Pollutant
Not available.

Snow Depth

Station Depth Elevation

Earthquake Activity

City Distance Mag. Time & Date
Minimum magnitude displayed is 2.5.

Coastal Water Temperatures

Place Temperature

Nearby Weather Stations